Portada
METAR-TAF:

METAR-TAF

Aeropuertos :

Agen, Francia

latitud: 44-11N, longitud: 000-36E, altitud: 61 m

Observación

El informe se hizo hace 16 minutos, a las 02:00 UTC
Viento 1 kt con dirección variable
Temperatura 8°C
Humedad 93%
Presión 1021 hPa
Visibilidad: 0400 m
niebla

METAR: LFBA 240200Z AUTO VRB01KT 0450 0400 R29/0450D FG VV/// 08/07 Q1021

Hora: 03:16 (02:16 UTC)

Pronóstico

El informe se hizo hace 9 horas y 16 minutos, a las 17:00 UTC
Pronóstico válido del 23 a las 18 UTC al 24 a las 03 UTC
Viento 12 kt del este-sureste
Visibilidad 10 km o más
Cielo nuboso a una altura de 2000 ft
Evolucionando progresivamente
del 23 a las 18 UTC al 23 a las 20 UTC
Viento 3 kt con dirección variable
Cielo nuboso a una altura de 1000 ft

TAF: LFBA 231700Z 2318/2403 11012KT 9999 BKN020 BECMG 2318/2320 VRB03KT BKN010

Observaciones y pronósticos meteorológicos de más de 4000 aeropuertos (mensajes METAR y TAF).

Los puntos amarillos y rojos representan las estaciones disponibles.

Ponga el ratón en el punto deseado para ver el nombre de la estación.

Haga clic para ver las observaciones y los pronósticos meteorológicos.

Para cambiar el mapa : haga clic en los botones verdes con una cruz de color negro para hacer un zoom, en el botón verde con un guión para alejar o en las flechas verdes para mapas adyacentes.


METAR-TAF: